Time;durP1;ratioP1;P1;durP2;ratioP2;P2;SDS_P1;SDS_P2;PMS_P1;PMS_P2;Temp;Humidity;BMP_temperature;BMP_pressure;BME280_temperature;BME280_humidity;BME280_pressure;Samples;Min_cycle;Max_cycle;Signal;HPM_P1;HPM_P2
2022/04/21 00:00:23;;;;;;;11.73;7.45;;;7.70;99.90;;;;;;5125340;27;20035;-86
2022/04/21 00:02:49;;;;;;;11.23;5.30;;;7.80;99.90;;;;;;5123554;27;20047;-86
2022/04/21 00:05:15;;;;;;;10.48;5.30;;;7.70;99.90;;;;;;5124947;27;20662;-85
2022/04/21 00:07:40;;;;;;;10.35;7.13;;;7.70;99.90;;;;;;5128420;27;20116;-86
2022/04/21 00:10:08;;;;;;;10.65;6.15;;;7.70;99.90;;;;;;5126742;27;20458;-86
2022/04/21 00:12:34;;;;;;;9.98;5.38;;;7.60;99.90;;;;;;5123051;27;20051;-85
2022/04/21 00:15:01;;;;;;;9.98;6.97;;;7.60;99.90;;;;;;5125158;27;20054;-85
2022/04/21 00:17:26;;;;;;;12.65;6.57;;;7.60;99.90;;;;;;5125164;27;20394;-85
2022/04/21 00:19:52;;;;;;;11.00;5.90;;;7.50;99.90;;;;;;5124447;27;20059;-85
2022/04/21 00:25:02;;;;;;;11.43;6.47;;;7.50;99.90;;;;;;5124229;27;20628;-84
2022/04/21 00:27:28;;;;;;;9.85;5.10;;;7.40;99.90;;;;;;5125124;27;20046;-85
2022/04/21 00:29:55;;;;;;;10.98;6.40;;;7.30;99.90;;;;;;5124132;27;20483;-85
2022/04/21 00:32:21;;;;;;;11.90;6.22;;;7.40;99.90;;;;;;5124632;27;20035;-85
2022/04/21 00:34:46;;;;;;;10.48;6.13;;;7.30;99.90;;;;;;5125367;27;20049;-86
2022/04/21 00:37:12;;;;;;;11.07;7.78;;;7.30;99.90;;;;;;5126502;27;20042;-86
2022/04/21 00:39:38;;;;;;;10.98;6.57;;;7.30;99.90;;;;;;5128086;27;20070;-85
2022/04/21 00:42:04;;;;;;;11.70;5.35;;;7.30;99.90;;;;;;5124912;27;20070;-84
2022/04/21 00:44:30;;;;;;;10.85;7.32;;;7.20;99.90;;;;;;5146721;27;20196;-85
2022/04/21 00:47:00;;;;;;;11.30;7.22;;;7.20;99.90;;;;;;5146661;27;20391;-86
2022/04/21 00:49:26;;;;;;;11.63;6.55;;;7.10;99.90;;;;;;5156460;27;20187;-85
2022/04/21 00:51:54;;;;;;;11.07;8.15;;;7.10;99.90;;;;;;5148434;27;20051;-86
2022/04/21 00:54:19;;;;;;;10.25;6.30;;;7.10;99.90;;;;;;5130350;27;20045;-85
2022/04/21 00:56:47;;;;;;;11.27;6.15;;;7.10;99.90;;;;;;5128229;27;20688;-85
2022/04/21 00:59:13;;;;;;;14.10;5.68;;;7.00;99.90;;;;;;5118823;28;20043;-85
2022/04/21 01:04:24;;;;;;;11.48;6.75;;;7.00;99.90;;;;;;5146236;27;20038;-85
2022/04/21 01:06:54;;;;;;;12.20;7.85;;;6.90;99.90;;;;;;5145075;27;20095;-85
2022/04/21 01:09:21;;;;;;;11.90;6.45;;;7.00;99.90;;;;;;5125903;27;20126;-85
2022/04/21 01:11:47;;;;;;;10.43;6.00;;;6.90;99.90;;;;;;5146075;27;20138;-85
2022/04/21 01:14:15;;;;;;;10.77;6.40;;;6.90;99.90;;;;;;5146250;27;20387;-85
2022/04/21 01:16:40;;;;;;;9.93;5.55;;;6.90;99.90;;;;;;5145729;27;20126;-85
2022/04/21 01:19:06;;;;;;;13.15;8.98;;;6.80;99.90;;;;;;5143183;27;20554;-85
2022/04/21 01:21:32;;;;;;;11.90;5.78;;;6.90;99.90;;;;;;5129063;27;20051;-85
2022/04/21 01:23:58;;;;;;;11.88;5.90;;;6.80;99.90;;;;;;5144601;27;20074;-85
2022/04/21 01:26:28;;;;;;;11.07;6.78;;;6.80;99.90;;;;;;5145686;27;20035;-86
2022/04/21 01:28:55;;;;;;;12.48;7.40;;;6.70;99.90;;;;;;5147474;27;20038;-85
2022/04/21 01:31:22;;;;;;;11.18;6.63;;;6.60;99.90;;;;;;5146514;27;20414;-85
2022/04/21 01:33:47;;;;;;;11.75;8.80;;;6.60;99.90;;;;;;5144611;27;20434;-85
2022/04/21 01:36:13;;;;;;;12.02;6.47;;;6.60;99.90;;;;;;5126433;27;20070;-85
2022/04/21 01:41:23;;;;;;;12.48;6.35;;;6.50;99.90;;;;;;5125833;27;20050;-85
2022/04/21 01:43:48;;;;;;;12.57;7.40;;;6.50;99.90;;;;;;5117920;27;20047;-85
2022/04/21 01:46:14;;;;;;;11.98;7.82;;;6.50;99.90;;;;;;5120252;28;20429;-85
2022/04/21 01:48:39;;;;;;;12.38;7.82;;;6.40;99.90;;;;;;5123709;27;20039;-85
2022/04/21 01:51:05;;;;;;;13.38;9.90;;;6.40;99.90;;;;;;5120885;27;20399;-85
2022/04/21 01:53:31;;;;;;;10.75;6.45;;;6.50;99.90;;;;;;5122879;27;20105;-84
2022/04/21 01:55:57;;;;;;;12.40;6.78;;;6.50;99.90;;;;;;5127135;27;20034;-85
2022/04/21 01:58:22;;;;;;;12.40;6.60;;;6.50;99.90;;;;;;5123999;27;20692;-84
2022/04/21 02:00:48;;;;;;;12.07;7.03;;;6.40;99.90;;;;;;5127219;27;20050;-85
2022/04/21 02:03:13;;;;;;;11.35;6.13;;;6.40;99.90;;;;;;5125335;27;20052;-85
2022/04/21 02:05:39;;;;;;;11.98;6.57;;;6.30;99.90;;;;;;5125821;27;20043;-85
2022/04/21 02:08:05;;;;;;;11.60;6.35;;;6.30;99.90;;;;;;5124215;27;20039;-85
2022/04/21 02:10:31;;;;;;;13.38;7.68;;;6.30;99.90;;;;;;5125474;27;20050;-85
2022/04/21 02:12:57;;;;;;;11.63;6.47;;;6.20;99.90;;;;;;5125514;27;20447;-84
2022/04/21 02:15:23;;;;;;;12.80;7.15;;;6.10;99.90;;;;;;5122920;27;20492;-84
2022/04/21 02:17:50;;;;;;;13.02;6.57;;;6.10;99.90;;;;;;5122266;27;20122;-85
2022/04/21 02:20:16;;;;;;;13.05;7.45;;;6.10;99.90;;;;;;5125807;27;20362;-85
2022/04/21 02:22:46;;;;;;;13.55;7.45;;;6.10;99.90;;;;;;5124686;27;20043;-84
2022/04/21 02:25:15;;;;;;;12.20;6.93;;;6.10;99.90;;;;;;5120207;27;20135;-84
2022/04/21 02:27:42;;;;;;;14.20;7.55;;;6.10;99.90;;;;;;5125481;27;20045;-85
2022/04/21 02:30:10;;;;;;;13.82;8.23;;;6.10;99.90;;;;;;5124664;27;20491;-85
2022/04/21 02:32:36;;;;;;;12.95;6.57;;;6.20;99.90;;;;;;5126834;27;20047;-84
2022/04/21 02:35:03;;;;;;;14.95;8.48;;;6.20;99.90;;;;;;5124680;27;20074;-85
2022/04/21 02:37:34;;;;;;;14.60;8.27;;;6.20;99.90;;;;;;5106490;27;20082;-86
2022/04/21 02:39:59;;;;;;;13.40;7.90;;;6.20;99.90;;;;;;5123310;27;20031;-84
2022/04/21 02:42:25;;;;;;;15.45;8.45;;;6.20;99.90;;;;;;5128129;27;20054;-85
2022/04/21 02:44:50;;;;;;;16.42;9.05;;;6.30;99.90;;;;;;5130596;27;20406;-83
2022/04/21 02:47:17;;;;;;;13.90;8.75;;;6.30;99.90;;;;;;5155884;27;20070;-84
2022/04/21 02:49:47;;;;;;;14.05;8.07;;;6.30;99.90;;;;;;5135136;27;20067;-84
2022/04/21 02:52:13;;;;;;;13.90;8.60;;;6.30;99.90;;;;;;5147788;27;20440;-84
2022/04/21 02:57:25;;;;;;;13.23;7.78;;;6.30;99.90;;;;;;5147745;27;20053;-85
2022/04/21 02:59:54;;;;;;;14.65;9.13;;;6.20;99.90;;;;;;5145478;27;20050;-84
2022/04/21 03:02:21;;;;;;;14.40;9.15;;;6.20;99.90;;;;;;5145168;27;20058;-86
2022/04/21 03:04:47;;;;;;;14.40;8.75;;;6.20;99.90;;;;;;5129082;27;20074;-85
2022/04/21 03:07:14;;;;;;;13.82;8.60;;;6.20;99.90;;;;;;5147834;27;20033;-85
2022/04/21 03:09:42;;;;;;;14.98;7.97;;;6.20;99.90;;;;;;5108531;27;20053;-84
2022/04/21 03:12:08;;;;;;;12.82;7.88;;;6.20;99.90;;;;;;5150115;27;20411;-85
2022/04/21 03:14:36;;;;;;;14.48;8.50;;;6.10;99.90;;;;;;5129375;27;20364;-85
2022/04/21 03:17:02;;;;;;;15.88;8.82;;;6.10;99.90;;;;;;5145695;27;20066;-84
2022/04/21 03:19:27;;;;;;;15.23;9.20;;;6.10;99.90;;;;;;5148290;27;20085;-85
2022/04/21 03:24:37;;;;;;;14.32;7.88;;;6.10;99.90;;;;;;5148140;27;20038;-85
2022/04/21 03:27:04;;;;;;;14.07;8.13;;;6.00;99.90;;;;;;5131455;27;20157;-85
2022/04/21 03:29:30;;;;;;;15.00;7.80;;;6.00;99.90;;;;;;5113403;27;20034;-85
2022/04/21 03:31:55;;;;;;;15.65;9.30;;;5.90;99.90;;;;;;5147446;27;20387;-85
2022/04/21 03:34:21;;;;;;;15.68;8.57;;;5.90;99.90;;;;;;5127673;27;20375;-85
2022/04/21 03:36:49;;;;;;;15.82;12.63;;;5.90;99.90;;;;;;5128680;27;20105;-85
2022/04/21 03:39:20;;;;;;;13.73;7.75;;;6.00;99.90;;;;;;5128175;27;20119;-85
2022/04/21 03:41:46;;;;;;;15.18;9.25;;;5.90;99.90;;;;;;5148247;27;20046;-85
2022/04/21 03:44:12;;;;;;;14.48;7.72;;;5.90;99.90;;;;;;5149026;27;20054;-86
2022/04/21 03:46:38;;;;;;;14.13;7.90;;;5.90;99.90;;;;;;5127865;27;20045;-85
2022/04/21 03:49:05;;;;;;;16.42;9.20;;;5.90;99.90;;;;;;5146953;27;20053;-84
2022/04/21 03:51:31;;;;;;;14.57;9.07;;;5.80;99.90;;;;;;5146925;27;20072;-85
2022/04/21 03:53:57;;;;;;;15.55;8.55;;;5.90;99.90;;;;;;5127172;27;20050;-85
2022/04/21 03:56:22;;;;;;;14.38;8.63;;;5.80;99.90;;;;;;5147219;27;20046;-85
2022/04/21 03:58:49;;;;;;;17.17;9.27;;;5.80;99.90;;;;;;5147598;27;20035;-85
2022/04/21 04:01:15;;;;;;;14.18;8.73;;;5.80;99.90;;;;;;5147483;27;20046;-84
2022/04/21 04:03:42;;;;;;;15.63;9.35;;;5.80;99.90;;;;;;5127013;27;20049;-85
2022/04/21 04:10:51;;;;;;;13.90;8.57;;;5.80;99.90;;;;;;5144205;27;20043;-85
2022/04/21 04:11:39;;;;;;;14.13;8.02;;;5.70;99.90;;;;;;5147929;27;20391;-84
2022/04/21 04:14:05;;;;;;;13.68;9.13;;;5.60;99.90;;;;;;5144932;27;20086;-84
2022/04/21 04:16:35;;;;;;;14.85;8.35;;;5.60;99.90;;;;;;5146574;27;20049;-85
2022/04/21 04:19:05;;;;;;;14.93;7.75;;;5.60;99.90;;;;;;5146193;27;20054;-85
2022/04/21 04:21:34;;;;;;;15.98;7.90;;;5.50;99.90;;;;;;5146014;27;20103;-84
2022/04/21 04:24:00;;;;;;;14.40;9.82;;;5.50;99.90;;;;;;5123771;27;20138;-85
2022/04/21 04:26:26;;;;;;;15.32;8.70;;;5.50;99.90;;;;;;5123896;27;20823;-85
2022/04/21 04:28:52;;;;;;;14.15;8.57;;;5.40;99.90;;;;;;5146005;27;20038;-85
2022/04/21 04:31:18;;;;;;;16.08;9.77;;;5.40;99.90;;;;;;5140674;27;20292;-84
2022/04/21 04:33:44;;;;;;;16.08;9.73;;;5.50;99.90;;;;;;5145045;27;20121;-84
2022/04/21 04:36:15;;;;;;;16.88;9.32;;;5.50;99.90;;;;;;5127429;27;20035;-84
2022/04/21 04:38:41;;;;;;;16.73;9.55;;;5.50;99.90;;;;;;5145788;27;20054;-85
2022/04/21 04:43:51;;;;;;;14.82;8.63;;;5.40;99.90;;;;;;5127245;27;20058;-85
2022/04/21 04:46:34;;;;;;;16.25;9.90;;;5.40;99.90;;;;;;5146030;27;20034;-85
2022/04/21 04:49:07;;;;;;;13.40;9.30;;;5.40;99.90;;;;;;5123205;27;20463;-84
2022/04/21 04:51:39;;;;;;;17.90;10.38;;;5.40;99.90;;;;;;5126866;27;20475;-84
2022/04/21 04:54:07;;;;;;;17.38;10.00;;;5.40;99.90;;;;;;5141415;27;20051;-87
2022/04/21 04:56:34;;;;;;;14.70;10.23;;;5.50;99.90;;;;;;5146193;27;20053;-86
2022/04/21 04:59:00;;;;;;;16.85;10.02;;;5.60;99.90;;;;;;5143708;27;20120;-87
2022/04/21 05:01:41;;;;;;;16.58;10.05;;;5.60;99.90;;;;;;5124049;27;20054;-86
2022/04/21 05:04:12;;;;;;;16.83;9.07;;;5.80;99.90;;;;;;5145610;27;20045;-88
2022/04/21 05:06:46;;;;;;;17.20;9.55;;;5.80;99.90;;;;;;5128063;27;20065;-87
2022/04/21 05:09:13;;;;;;;18.23;9.93;;;5.90;99.90;;;;;;5142918;27;20448;-87
2022/04/21 05:11:41;;;;;;;18.33;10.38;;;6.00;99.90;;;;;;5126330;27;20043;-88
2022/04/21 05:14:07;;;;;;;15.20;9.10;;;6.00;99.90;;;;;;5123490;27;20131;-86
2022/04/21 05:16:36;;;;;;;16.38;9.60;;;6.10;99.90;;;;;;5152911;27;20055;-86
2022/04/21 05:19:03;;;;;;;13.98;8.95;;;6.10;99.90;;;;;;5126780;27;20119;-86
2022/04/21 05:21:30;;;;;;;15.60;9.93;;;6.20;99.90;;;;;;5146314;27;20050;-87
2022/04/21 05:23:57;;;;;;;15.73;10.27;;;6.30;99.90;;;;;;5125994;27;20051;-88
2022/04/21 05:26:25;;;;;;;14.40;9.50;;;6.40;99.90;;;;;;5129961;27;20046;-86
2022/04/21 05:28:51;;;;;;;17.00;10.30;;;6.50;99.90;;;;;;5149600;27;20047;-87
2022/04/21 05:31:17;;;;;;;15.65;10.00;;;6.60;99.90;;;;;;5127926;27;20050;-87
2022/04/21 05:33:43;;;;;;;15.80;10.05;;;6.60;99.90;;;;;;5145003;27;20034;-88
2022/04/21 05:36:09;;;;;;;16.27;9.48;;;6.70;99.90;;;;;;5129905;27;20049;-88
2022/04/21 05:38:35;;;;;;;15.93;9.05;;;6.80;99.90;;;;;;5130503;27;20039;-88
2022/04/21 05:41:01;;;;;;;15.82;10.38;;;7.00;99.90;;;;;;5169938;27;20046;-90
2022/04/21 05:43:42;;;;;;;14.63;9.32;;;7.10;99.90;;;;;;5150669;27;20059;-88
2022/04/21 05:46:10;;;;;;;14.63;9.07;;;7.20;99.90;;;;;;5137663;27;20428;-88
2022/04/21 05:48:36;;;;;;;14.05;11.40;;;7.30;99.90;;;;;;5150477;27;20041;-89
2022/04/21 05:51:03;;;;;;;15.18;9.57;;;7.40;99.90;;;;;;5112808;27;20161;-88
2022/04/21 05:53:36;;;;;;;14.77;10.45;;;7.50;99.90;;;;;;5151040;27;20051;-88
2022/04/21 05:56:04;;;;;;;13.18;8.38;;;7.60;99.90;;;;;;5130162;27;20113;-94
2022/04/21 05:58:30;;;;;;;13.27;9.45;;;7.70;99.90;;;;;;5151809;27;20035;-91
2022/04/21 06:00:56;;;;;;;12.82;9.65;;;7.70;99.90;;;;;;5130293;27;20054;-94
2022/04/21 06:03:22;;;;;;;14.27;9.38;;;7.80;99.90;;;;;;5147090;27;20089;-90
2022/04/21 06:05:48;;;;;;;14.30;9.02;;;7.90;99.90;;;;;;5148358;27;20110;-87
2022/04/21 06:08:14;;;;;;;15.70;11.18;;;8.00;99.90;;;;;;5149982;27;20039;-92
2022/04/21 06:10:40;;;;;;;13.38;8.18;;;8.10;99.90;;;;;;5110005;27;20045;-90
2022/04/21 06:13:05;;;;;;;13.65;7.65;;;8.20;99.90;;;;;;5130753;27;20050;-91
2022/04/21 06:15:32;;;;;;;12.88;9.10;;;8.30;99.90;;;;;;5130876;27;20034;-89
2022/04/21 06:18:01;;;;;;;13.15;8.70;;;8.40;99.90;;;;;;5129539;27;20169;-88
2022/04/21 06:20:27;;;;;;;12.63;9.68;;;8.50;99.90;;;;;;5150251;27;20092;-90
2022/04/21 06:22:53;;;;;;;13.63;9.30;;;8.60;99.90;;;;;;5112925;27;20043;-90
2022/04/21 06:25:19;;;;;;;11.75;8.82;;;8.70;99.90;;;;;;5128795;27;20031;-89
2022/04/21 06:27:44;;;;;;;13.65;9.57;;;8.80;99.90;;;;;;5129191;27;20043;-89
2022/04/21 06:30:10;;;;;;;12.43;8.07;;;8.90;99.90;;;;;;5140217;27;20031;-89
2022/04/21 06:32:36;;;;;;;12.15;8.50;;;9.00;99.90;;;;;;5145355;27;20438;-90
2022/04/21 06:35:03;;;;;;;11.77;8.60;;;9.10;99.90;;;;;;5121542;27;20069;-90
2022/04/21 06:37:28;;;;;;;11.57;8.23;;;9.20;99.90;;;;;;5129411;27;20042;-91
2022/04/21 06:39:54;;;;;;;11.52;7.47;;;9.40;99.90;;;;;;5111216;27;20038;-93
2022/04/21 06:42:19;;;;;;;10.82;7.60;;;9.50;99.90;;;;;;5133382;27;20487;-89
2022/04/21 06:48:29;;;;;;;10.23;6.60;;;9.70;99.90;;;;;;5152570;27;20053;-91
2022/04/21 06:50:24;;;;;;;9.82;7.05;;;9.80;99.90;;;;;;5127127;27;20043;-91
2022/04/21 06:52:49;;;;;;;9.68;6.80;;;10.00;99.90;;;;;;5144029;27;20404;-89
2022/04/21 06:55:15;;;;;;;11.50;6.68;;;10.10;99.90;;;;;;5133227;27;20058;-92
2022/04/21 06:57:40;;;;;;;9.98;6.75;;;10.20;99.90;;;;;;5148604;27;20402;-87
2022/04/21 07:00:07;;;;;;;8.85;6.00;;;10.30;99.90;;;;;;5137103;27;20435;-93
2022/04/21 07:02:33;;;;;;;10.15;6.40;;;10.50;99.90;;;;;;5149701;27;20034;-89
2022/04/21 07:05:06;;;;;;;9.48;6.13;;;10.50;99.90;;;;;;5148349;27;20089;-88
2022/04/21 07:07:32;;;;;;;9.38;5.90;;;10.60;99.90;;;;;;5144135;27;20039;-89
2022/04/21 07:09:58;;;;;;;8.73;5.10;;;10.70;99.90;;;;;;5147955;27;20054;-88
2022/04/21 07:12:30;;;;;;;9.75;5.40;;;10.80;99.90;;;;;;5112096;27;20049;-89
2022/04/21 07:15:01;;;;;;;8.98;5.40;;;10.90;99.90;;;;;;5120963;27;20035;-89
2022/04/21 07:17:27;;;;;;;8.60;5.22;;;11.00;99.90;;;;;;5147580;27;20100;-87
2022/04/21 07:19:52;;;;;;;8.30;5.07;;;11.10;99.90;;;;;;5112078;27;20046;-87
2022/04/21 07:22:25;;;;;;;7.85;4.50;;;11.20;99.90;;;;;;5141896;27;20038;-86
2022/04/21 07:24:51;;;;;;;8.88;5.05;;;11.30;99.90;;;;;;5127219;27;20042;-88
2022/04/21 07:27:16;;;;;;;7.05;4.50;;;11.30;99.90;;;;;;5130793;27;20054;-91
2022/04/21 07:29:42;;;;;;;8.02;4.80;;;11.40;99.90;;;;;;5129944;27;20059;-92
2022/04/21 07:32:08;;;;;;;9.02;4.68;;;11.50;99.90;;;;;;5131228;27;20046;-94
2022/04/21 07:34:34;;;;;;;9.70;4.88;;;11.60;99.90;;;;;;5147553;27;20039;-89
2022/04/21 07:36:59;;;;;;;7.97;4.50;;;11.60;99.90;;;;;;5124894;27;20081;-88
2022/04/21 07:39:25;;;;;;;8.18;4.10;;;11.70;99.90;;;;;;5147293;27;20081;-88
2022/04/21 07:41:51;;;;;;;7.32;3.90;;;11.80;99.90;;;;;;5147642;27;20035;-90
2022/04/21 07:44:17;;;;;;;6.82;4.25;;;11.90;99.90;;;;;;5126459;27;20054;-88
2022/04/21 07:46:43;;;;;;;7.30;3.67;;;12.00;99.90;;;;;;5125845;27;20034;-91
2022/04/21 07:53:12;;;;;;;8.38;4.20;;;12.10;99.90;;;;;;5129269;27;20043;-92
2022/04/21 07:54:38;;;;;;;7.78;4.20;;;12.20;99.90;;;;;;5151708;27;20042;-90
2022/04/21 07:57:04;;;;;;;8.88;4.22;;;12.40;99.90;;;;;;5113350;27;20035;-93
2022/04/21 07:59:30;;;;;;;8.68;4.22;;;12.40;99.90;;;;;;5154588;27;20050;-93
2022/04/21 08:01:56;;;;;;;9.45;4.47;;;12.50;99.90;;;;;;5123702;27;20058;-91
2022/04/21 08:04:22;;;;;;;6.68;3.65;;;12.70;99.90;;;;;;5137031;27;20047;-95
2022/04/21 08:06:48;;;;;;;7.30;3.75;;;12.70;99.90;;;;;;5141857;27;20074;-94
2022/04/21 08:09:14;;;;;;;7.22;4.07;;;12.80;99.90;;;;;;5159751;27;20043;-94
2022/04/21 08:11:40;;;;;;;6.70;3.80;;;12.80;99.90;;;;;;5138968;27;20416;-92
2022/04/21 08:14:05;;;;;;;8.15;3.97;;;12.90;99.90;;;;;;5136067;27;20138;-94
2022/04/21 08:16:31;;;;;;;6.95;3.63;;;12.90;99.70;;;;;;5135717;27;20414;-92
2022/04/21 08:18:58;;;;;;;6.78;3.72;;;13.00;99.70;;;;;;5134805;27;20043;-94
2022/04/21 08:21:25;;;;;;;7.25;3.47;;;13.00;98.20;;;;;;5154988;27;20057;-92
2022/04/21 08:23:51;;;;;;;7.03;3.60;;;13.20;97.60;;;;;;5132545;27;20059;-89
2022/04/21 08:34:30;;;;;;;9.07;3.53;;;13.50;95.30;;;;;;5137014;27;20107;-90
2022/04/21 08:36:55;;;;;;;6.82;3.40;;;13.50;94.60;;;;;;5148959;27;20043;-89
2022/04/21 08:39:22;;;;;;;7.30;3.70;;;13.60;94.80;;;;;;5135140;27;20465;-93
2022/04/21 08:41:51;;;;;;;6.78;3.53;;;13.70;94.50;;;;;;5148807;27;20051;-91
2022/04/21 08:44:20;;;;;;;6.30;3.45;;;13.80;94.40;;;;;;5131184;27;20082;-90
2022/04/21 08:46:48;;;;;;;6.55;3.53;;;13.90;93.30;;;;;;5111307;27;20085;-90
2022/04/21 08:49:18;;;;;;;8.90;3.67;;;14.00;94.30;;;;;;5147050;27;20042;-90
2022/04/21 08:51:43;;;;;;;7.43;3.90;;;14.10;92.60;;;;;;5113779;27;20042;-93
2022/04/21 08:54:09;;;;;;;7.50;3.45;;;14.10;92.10;;;;;;5111783;27;20508;-91
2022/04/21 08:56:34;;;;;;;6.63;3.67;;;14.20;92.40;;;;;;5149509;27;20430;-91
2022/04/21 08:59:00;;;;;;;9.43;4.60;;;14.20;92.30;;;;;;5149875;27;20384;-93
2022/04/21 09:01:26;;;;;;;8.93;3.90;;;14.30;91.10;;;;;;5154280;27;20098;-89
2022/04/21 09:03:51;;;;;;;6.40;3.25;;;14.30;91.20;;;;;;5151741;27;20050;-89
2022/04/21 09:06:21;;;;;;;7.82;3.83;;;14.40;91.40;;;;;;5154046;27;20066;-90
2022/04/21 09:08:48;;;;;;;6.53;3.33;;;14.50;90.40;;;;;;5134104;27;20050;-92
2022/04/21 09:11:15;;;;;;;6.93;3.60;;;14.50;89.20;;;;;;5134537;27;20121;-92
2022/04/21 09:13:42;;;;;;;6.72;3.58;;;14.60;87.60;;;;;;5118475;27;20103;-90
2022/04/21 09:16:10;;;;;;;8.40;3.70;;;14.60;87.10;;;;;;5135818;27;20053;-90
2022/04/21 09:18:40;;;;;;;8.43;3.85;;;14.60;86.30;;;;;;5135573;27;20129;-93
2022/04/21 09:21:10;;;;;;;7.80;3.38;;;14.60;86.70;;;;;;5134589;27;20406;-93
2022/04/21 09:23:36;;;;;;;6.60;3.47;;;14.60;87.60;;;;;;5149608;27;20117;-90
2022/04/21 09:26:28;;;;;;;7.15;3.70;;;14.70;88.20;;;;;;5112532;27;20039;-91
2022/04/21 09:28:57;;;;;;;5.72;3.42;;;14.70;80.60;;;;;;5149418;27;20046;-91
2022/04/21 09:31:24;;;;;;;7.28;3.55;;;14.70;85.40;;;;;;5153026;27;20087;-91
2022/04/21 09:33:51;;;;;;;7.43;3.60;;;14.90;85.00;;;;;;5117191;27;20031;-93
2022/04/21 09:36:16;;;;;;;6.93;3.97;;;14.90;84.00;;;;;;5150252;27;20046;-92
2022/04/21 09:38:42;;;;;;;7.22;3.47;;;15.00;82.40;;;;;;5156993;27;20029;-92
2022/04/21 09:41:10;;;;;;;6.78;3.65;;;15.10;84.20;;;;;;5135579;27;20129;-93
2022/04/21 09:43:39;;;;;;;7.13;3.10;;;15.20;83.50;;;;;;5133790;27;20053;-93
2022/04/21 09:46:16;;;;;;;6.80;3.50;;;15.20;83.10;;;;;;5132590;27;20050;-94
2022/04/21 09:48:43;;;;;;;7.95;3.20;;;15.40;80.60;;;;;;5154080;27;20501;-92
2022/04/21 09:51:17;;;;;;;7.13;3.30;;;15.50;81.90;;;;;;5132829;27;20046;-94
2022/04/21 09:53:56;;;;;;;5.97;3.20;;;15.60;78.60;;;;;;5136982;27;20046;-90
2022/04/21 09:56:53;;;;;;;14.23;4.25;;;15.50;75.80;;;;;;5153060;27;20083;-93
2022/04/21 09:59:20;;;;;;;6.35;3.45;;;15.50;72.60;;;;;;5151613;27;20050;-93
2022/04/21 10:01:46;;;;;;;7.07;3.13;;;15.50;74.80;;;;;;5119147;27;20610;-92
2022/04/21 10:04:12;;;;;;;6.85;3.30;;;15.60;75.60;;;;;;5152897;27;20583;-90
2022/04/21 10:06:39;;;;;;;8.35;3.20;;;15.60;73.80;;;;;;5152820;27;20039;-93
2022/04/21 10:09:08;;;;;;;6.97;3.28;;;15.60;73.20;;;;;;5146449;27;20079;-90
2022/04/21 10:11:38;;;;;;;6.70;3.08;;;15.60;73.00;;;;;;5138361;27;20054;-91
2022/04/21 10:14:05;;;;;;;7.30;3.17;;;15.70;72.30;;;;;;5155829;27;20042;-89
2022/04/21 10:16:31;;;;;;;6.72;3.17;;;15.70;71.50;;;;;;5169046;27;20090;-93
2022/04/21 10:18:59;;;;;;;5.60;2.95;;;15.70;72.10;;;;;;5162125;27;20082;-90
2022/04/21 10:21:30;;;;;;;7.03;2.97;;;15.80;71.60;;;;;;5134537;27;20492;-89
2022/04/21 10:23:57;;;;;;;8.32;3.67;;;15.90;70.20;;;;;;5134644;27;20139;-96
2022/04/21 10:26:42;;;;;;;6.70;3.28;;;15.90;70.80;;;;;;5151527;27;20090;-90
2022/04/21 10:29:11;;;;;;;7.60;3.17;;;16.00;69.50;;;;;;5121041;27;20072;-91
2022/04/21 10:31:57;;;;;;;6.70;3.35;;;16.10;71.30;;;;;;5145192;27;20067;-89
2022/04/21 10:34:45;;;;;;;7.43;3.55;;;16.20;67.60;;;;;;5152857;27;20076;-89
2022/04/21 10:37:13;;;;;;;7.65;3.75;;;16.20;67.70;;;;;;5151983;27;20077;-92
2022/04/21 10:40:00;;;;;;;6.50;3.42;;;16.20;71.00;;;;;;5128074;27;20046;-92
2022/04/21 10:42:25;;;;;;;6.97;3.45;;;16.30;68.40;;;;;;5148929;27;20047;-93
2022/04/21 10:44:53;;;;;;;8.98;3.33;;;16.30;68.40;;;;;;5149901;27;20157;-91
2022/04/21 10:47:38;;;;;;;8.70;3.35;;;16.40;68.80;;;;;;5151957;27;20376;-90
2022/04/21 10:50:14;;;;;;;6.57;3.30;;;16.40;68.60;;;;;;5145320;27;20039;-89
2022/04/21 10:57:55;;;;;;;6.78;3.10;;;16.50;64.10;;;;;;5131779;27;20091;-89
2022/04/21 11:00:28;;;;;;;7.22;2.95;;;16.50;64.60;;;;;;5138906;27;20043;-90
2022/04/21 11:03:08;;;;;;;6.78;3.75;;;16.50;61.20;;;;;;5150645;27;20515;-91
2022/04/21 11:05:40;;;;;;;7.22;3.35;;;16.60;60.70;;;;;;5128047;27;20047;-93
2022/04/21 11:08:17;;;;;;;7.95;3.50;;;16.60;63.40;;;;;;5134336;27;20102;-89
2022/04/21 11:10:44;;;;;;;7.82;3.70;;;16.70;61.70;;;;;;5152360;27;20039;-92
2022/04/21 11:13:17;;;;;;;6.80;4.03;;;16.70;64.70;;;;;;5156345;27;20038;-89
2022/04/21 11:15:49;;;;;;;7.50;3.78;;;16.80;64.00;;;;;;5132857;27;20109;-90
2022/04/21 11:18:28;;;;;;;6.68;3.58;;;16.80;62.80;;;;;;5147084;27;20399;-95
2022/04/21 11:21:27;;;;;;;7.95;3.63;;;16.90;63.90;;;;;;5154263;27;20045;-95
2022/04/21 11:23:52;;;;;;;7.70;3.90;;;16.90;62.70;;;;;;5152573;27;20059;-95
2022/04/21 11:26:25;;;;;;;6.57;3.67;;;17.00;63.30;;;;;;5140817;27;20073;-95
2022/04/21 11:28:51;;;;;;;7.95;4.10;;;17.00;63.50;;;;;;5155453;27;20391;-94
2022/04/21 11:31:20;;;;;;;8.95;4.75;;;17.00;63.50;;;;;;5136817;27;20050;-92
2022/04/21 11:33:46;;;;;;;6.60;3.63;;;16.90;63.60;;;;;;5135146;27;20105;-88
2022/04/21 11:36:14;;;;;;;7.93;4.25;;;16.90;64.40;;;;;;5153780;27;20074;-92
2022/04/21 11:38:41;;;;;;;6.93;3.17;;;16.90;63.30;;;;;;5154563;27;20381;-91
2022/04/21 11:41:08;;;;;;;6.88;3.28;;;17.00;61.20;;;;;;5151570;27;20082;-92
2022/04/21 11:43:35;;;;;;;7.80;3.80;;;17.10;61.70;;;;;;5152009;27;20055;-91
2022/04/21 11:46:06;;;;;;;7.30;3.72;;;17.10;61.40;;;;;;5150462;27;20267;-93
2022/04/21 11:48:40;;;;;;;6.72;3.65;;;17.10;61.30;;;;;;5152203;27;20418;-92
2022/04/21 11:51:06;;;;;;;7.50;3.42;;;17.20;63.30;;;;;;5148498;27;20030;-91
2022/04/21 11:53:37;;;;;;;6.78;2.95;;;17.20;61.30;;;;;;5153402;27;20394;-92
2022/04/21 11:56:07;;;;;;;6.65;3.05;;;17.20;59.60;;;;;;5151188;27;20068;-93
2022/04/21 11:58:41;;;;;;;6.13;3.30;;;17.30;57.70;;;;;;5162920;27;20487;-92
2022/04/21 12:06:41;;;;;;;7.60;3.67;;;17.10;59.40;;;;;;5132534;27;20054;-94
2022/04/21 12:09:12;;;;;;;7.32;3.75;;;17.30;60.70;;;;;;5152233;27;20057;-89
2022/04/21 12:11:39;;;;;;;8.77;4.07;;;17.30;60.80;;;;;;5115353;27;20045;-89
2022/04/21 12:14:05;;;;;;;7.07;3.97;;;17.30;61.60;;;;;;5132859;27;20395;-95
2022/04/21 12:16:58;;;;;;;8.02;4.53;;;17.30;63.10;;;;;;5151003;27;20035;-93
2022/04/21 12:19:26;;;;;;;7.47;4.05;;;17.30;63.10;;;;;;5153829;27;20147;-93
2022/04/21 12:21:55;;;;;;;9.07;4.82;;;17.30;62.90;;;;;;5149804;27;20099;-91
2022/04/21 12:24:45;;;;;;;9.40;4.57;;;17.20;62.90;;;;;;5150859;27;20050;-92
2022/04/21 12:27:34;;;;;;;7.10;3.95;;;17.20;63.20;;;;;;5149857;27;20145;-90
2022/04/21 12:30:00;;;;;;;16.42;4.50;;;17.40;64.50;;;;;;5154792;27;20047;-92
2022/04/21 12:32:27;;;;;;;8.25;4.72;;;17.40;63.90;;;;;;5131990;27;20505;-91
2022/04/21 12:34:56;;;;;;;8.00;4.80;;;17.40;64.00;;;;;;5146743;27;20035;-91
2022/04/21 12:37:33;;;;;;;10.13;5.28;;;17.30;63.70;;;;;;5134407;27;20057;-92
2022/04/21 12:40:00;;;;;;;9.43;5.10;;;17.20;63.60;;;;;;5150323;27;20051;-93
2022/04/21 12:42:29;;;;;;;9.50;5.05;;;17.20;65.00;;;;;;5153135;27;20037;-89
2022/04/21 12:44:55;;;;;;;9.00;5.50;;;17.10;65.60;;;;;;5136177;27;20502;-96
2022/04/21 12:47:22;;;;;;;8.98;5.10;;;17.20;65.80;;;;;;5151565;27;20495;-93
2022/04/21 12:49:55;;;;;;;9.27;5.43;;;17.20;66.50;;;;;;5131517;27;20046;-93
2022/04/21 12:52:50;;;;;;;8.73;5.10;;;17.20;65.10;;;;;;5149384;27;20070;-94
2022/04/21 12:55:22;;;;;;;8.98;5.35;;;17.20;66.50;;;;;;5147857;27;20061;-92
2022/04/21 12:58:10;;;;;;;9.40;5.97;;;17.30;65.60;;;;;;5150652;27;20125;-95
2022/04/21 13:00:41;;;;;;;9.50;5.00;;;17.30;66.10;;;;;;5160276;27;20051;-90
2022/04/21 13:03:10;;;;;;;8.98;4.75;;;17.40;66.30;;;;;;5134502;27;20142;-93
2022/04/21 13:05:49;;;;;;;8.02;4.90;;;17.40;65.90;;;;;;5153570;27;20046;-92
2022/04/21 13:08:15;;;;;;;8.23;4.97;;;17.50;65.60;;;;;;5152496;27;20069;-93
2022/04/21 13:10:40;;;;;;;8.70;4.72;;;17.50;65.70;;;;;;5140427;27;20047;-93
2022/04/21 13:13:06;;;;;;;9.25;4.60;;;17.60;64.90;;;;;;5160509;27;20094;-95
2022/04/21 13:15:32;;;;;;;9.20;5.07;;;17.70;65.80;;;;;;5174622;27;20102;-92
2022/04/21 13:17:57;;;;;;;8.75;4.50;;;17.80;64.90;;;;;;5160664;27;20046;-92
2022/04/21 13:23:07;;;;;;;8.32;4.60;;;17.90;63.20;;;;;;5150762;27;20465;-93
2022/04/21 13:25:33;;;;;;;8.68;4.40;;;17.80;63.40;;;;;;5131777;27;20106;-94
2022/04/21 13:27:59;;;;;;;8.88;4.55;;;17.80;63.20;;;;;;5148993;27;20039;-92
2022/04/21 13:30:24;;;;;;;10.10;5.13;;;17.90;62.40;;;;;;5131875;27;20051;-89
2022/04/21 13:35:34;;;;;;;7.60;4.85;;;17.80;62.50;;;;;;5146137;27;20563;-92
2022/04/21 13:38:00;;;;;;;8.73;5.10;;;17.90;64.20;;;;;;5148815;27;20043;-89
2022/04/21 13:40:25;;;;;;;7.57;4.82;;;17.90;63.00;;;;;;5128857;27;20042;-94